sensor_id;sensor_type;location;lat;lon;timestamp;P1;durP1;ratioP1;P2;durP2;ratioP2
79790;SDS011;69278;52.220;5.172;2024-03-23T00:54:41;19.33;;;5.22;;
79790;SDS011;69278;52.220;5.172;2024-03-23T00:57:07;17.27;;;5.10;;
79790;SDS011;69278;52.220;5.172;2024-03-23T00:59:33;17.77;;;5.20;;
79790;SDS011;69278;52.220;5.172;2024-03-23T01:01:58;15.02;;;4.90;;
79790;SDS011;69278;52.220;5.172;2024-03-23T01:04:24;21.40;;;5.30;;
79790;SDS011;69278;52.220;5.172;2024-03-23T01:06:49;22.52;;;4.95;;
79790;SDS011;69278;52.220;5.172;2024-03-23T01:09:15;19.00;;;5.05;;
79790;SDS011;69278;52.220;5.172;2024-03-23T01:11:40;18.77;;;5.23;;
79790;SDS011;69278;52.220;5.172;2024-03-23T01:14:06;19.35;;;5.55;;
79790;SDS011;69278;52.220;5.172;2024-03-23T01:16:32;16.70;;;5.28;;
79790;SDS011;69278;52.220;5.172;2024-03-23T01:18:57;19.47;;;4.83;;
79790;SDS011;69278;52.220;5.172;2024-03-23T01:21:23;18.85;;;5.70;;
79790;SDS011;69278;52.220;5.172;2024-03-23T01:23:48;20.67;;;5.90;;
79790;SDS011;69278;52.220;5.172;2024-03-23T01:26:14;21.10;;;5.47;;
79790;SDS011;69278;52.220;5.172;2024-03-23T01:28:40;16.17;;;4.87;;
79790;SDS011;69278;52.220;5.172;2024-03-23T01:31:05;16.42;;;5.22;;
79790;SDS011;69278;52.220;5.172;2024-03-23T01:33:31;18.53;;;5.30;;
79790;SDS011;69278;52.220;5.172;2024-03-23T01:35:56;18.47;;;5.53;;
79790;SDS011;69278;52.220;5.172;2024-03-23T01:38:22;18.77;;;5.68;;
79790;SDS011;69278;52.220;5.172;2024-03-23T01:40:47;21.47;;;5.70;;
79790;SDS011;69278;52.220;5.172;2024-03-23T01:43:13;18.83;;;5.33;;
79790;SDS011;69278;52.220;5.172;2024-03-23T01:45:38;17.60;;;5.60;;
79790;SDS011;69278;52.220;5.172;2024-03-23T01:48:05;15.70;;;5.23;;
79790;SDS011;69278;52.220;5.172;2024-03-23T01:50:31;17.90;;;5.70;;
79790;SDS011;69278;52.220;5.172;2024-03-23T01:52:59;14.55;;;5.45;;
79790;SDS011;69278;52.220;5.172;2024-03-23T01:55:27;20.92;;;5.53;;
79790;SDS011;69278;52.220;5.172;2024-03-23T01:57:52;16.53;;;5.47;;
79790;SDS011;69278;52.220;5.172;2024-03-23T02:00:18;20.30;;;5.50;;
79790;SDS011;69278;52.220;5.172;2024-03-23T02:02:46;18.75;;;5.60;;
79790;SDS011;69278;52.220;5.172;2024-03-23T02:05:12;19.70;;;5.67;;
79790;SDS011;69278;52.220;5.172;2024-03-23T02:07:39;20.50;;;5.43;;
79790;SDS011;69278;52.220;5.172;2024-03-23T02:10:06;18.48;;;4.60;;
79790;SDS011;69278;52.220;5.172;2024-03-23T02:12:32;14.88;;;4.45;;
79790;SDS011;69278;52.220;5.172;2024-03-23T02:14:58;20.23;;;4.53;;
79790;SDS011;69278;52.220;5.172;2024-03-23T02:17:23;15.03;;;4.37;;
79790;SDS011;69278;52.220;5.172;2024-03-23T02:19:48;16.23;;;4.10;;
79790;SDS011;69278;52.220;5.172;2024-03-23T02:22:15;20.60;;;4.60;;
79790;SDS011;69278;52.220;5.172;2024-03-23T02:24:41;12.40;;;4.30;;
79790;SDS011;69278;52.220;5.172;2024-03-23T02:27:07;16.33;;;4.28;;
79790;SDS011;69278;52.220;5.172;2024-03-23T02:29:33;16.92;;;4.40;;
79790;SDS011;69278;52.220;5.172;2024-03-23T02:31:58;13.35;;;3.80;;
79790;SDS011;69278;52.220;5.172;2024-03-23T02:34:24;18.23;;;3.97;;
79790;SDS011;69278;52.220;5.172;2024-03-23T02:36:50;15.68;;;4.00;;
79790;SDS011;69278;52.220;5.172;2024-03-23T02:39:15;13.87;;;3.37;;
79790;SDS011;69278;52.220;5.172;2024-03-23T02:41:41;13.13;;;3.80;;
79790;SDS011;69278;52.220;5.172;2024-03-23T02:44:06;14.63;;;3.30;;
79790;SDS011;69278;52.220;5.172;2024-03-23T02:46:33;15.40;;;3.85;;
79790;SDS011;69278;52.220;5.172;2024-03-23T02:48:58;13.33;;;3.57;;
79790;SDS011;69278;52.220;5.172;2024-03-23T02:51:24;14.20;;;3.33;;
79790;SDS011;69278;52.220;5.172;2024-03-23T02:53:49;17.85;;;3.17;;
79790;SDS011;69278;52.220;5.172;2024-03-23T02:56:16;9.93;;;2.95;;
79790;SDS011;69278;52.220;5.172;2024-03-23T02:58:44;9.00;;;2.40;;
79790;SDS011;69278;52.220;5.172;2024-03-23T03:01:10;10.93;;;2.80;;
79790;SDS011;69278;52.220;5.172;2024-03-23T03:03:35;12.27;;;3.27;;
79790;SDS011;69278;52.220;5.172;2024-03-23T03:06:01;9.57;;;2.63;;
79790;SDS011;69278;52.220;5.172;2024-03-23T03:08:27;9.38;;;2.50;;
79790;SDS011;69278;52.220;5.172;2024-03-23T03:10:52;10.33;;;2.80;;
79790;SDS011;69278;52.220;5.172;2024-03-23T03:13:18;10.83;;;2.80;;
79790;SDS011;69278;52.220;5.172;2024-03-23T03:15:43;15.95;;;2.70;;
79790;SDS011;69278;52.220;5.172;2024-03-23T03:18:09;10.83;;;2.50;;
79790;SDS011;69278;52.220;5.172;2024-03-23T03:20:38;10.93;;;2.45;;
79790;SDS011;69278;52.220;5.172;2024-03-23T03:23:05;10.80;;;2.25;;
79790;SDS011;69278;52.220;5.172;2024-03-23T03:25:30;11.38;;;2.38;;
79790;SDS011;69278;52.220;5.172;2024-03-23T03:27:56;11.88;;;2.70;;
79790;SDS011;69278;52.220;5.172;2024-03-23T03:30:22;11.70;;;2.80;;
79790;SDS011;69278;52.220;5.172;2024-03-23T03:32:47;9.00;;;2.40;;
79790;SDS011;69278;52.220;5.172;2024-03-23T03:35:13;13.63;;;2.28;;
79790;SDS011;69278;52.220;5.172;2024-03-23T03:37:38;8.90;;;2.70;;
79790;SDS011;69278;52.220;5.172;2024-03-23T03:40:04;8.27;;;2.10;;
79790;SDS011;69278;52.220;5.172;2024-03-23T03:42:30;9.20;;;2.03;;
79790;SDS011;69278;52.220;5.172;2024-03-23T03:44:55;12.98;;;2.70;;
79790;SDS011;69278;52.220;5.172;2024-03-23T03:47:21;8.30;;;2.10;;
79790;SDS011;69278;52.220;5.172;2024-03-23T03:49:47;9.00;;;1.87;;
79790;SDS011;69278;52.220;5.172;2024-03-23T03:52:12;11.40;;;2.05;;
79790;SDS011;69278;52.220;5.172;2024-03-23T03:54:38;9.80;;;2.27;;
79790;SDS011;69278;52.220;5.172;2024-03-23T03:57:03;11.87;;;2.37;;
79790;SDS011;69278;52.220;5.172;2024-03-23T03:59:29;10.27;;;1.88;;
79790;SDS011;69278;52.220;5.172;2024-03-23T04:01:55;13.90;;;2.83;;
79790;SDS011;69278;52.220;5.172;2024-03-23T04:04:20;11.13;;;2.20;;
79790;SDS011;69278;52.220;5.172;2024-03-23T04:06:47;11.07;;;2.17;;
79790;SDS011;69278;52.220;5.172;2024-03-23T04:09:13;9.50;;;2.05;;
79790;SDS011;69278;52.220;5.172;2024-03-23T04:11:38;9.47;;;2.43;;
79790;SDS011;69278;52.220;5.172;2024-03-23T04:14:04;10.23;;;1.80;;
79790;SDS011;69278;52.220;5.172;2024-03-23T04:16:34;10.98;;;2.28;;
79790;SDS011;69278;52.220;5.172;2024-03-23T04:19:00;9.25;;;2.22;;
79790;SDS011;69278;52.220;5.172;2024-03-23T04:21:26;12.10;;;1.93;;
79790;SDS011;69278;52.220;5.172;2024-03-23T04:23:51;10.68;;;2.13;;
79790;SDS011;69278;52.220;5.172;2024-03-23T04:26:17;6.80;;;1.93;;
79790;SDS011;69278;52.220;5.172;2024-03-23T04:28:43;10.97;;;2.00;;
79790;SDS011;69278;52.220;5.172;2024-03-23T04:31:09;9.90;;;2.30;;
79790;SDS011;69278;52.220;5.172;2024-03-23T04:33:34;7.20;;;2.05;;
79790;SDS011;69278;52.220;5.172;2024-03-23T04:36:00;9.27;;;1.73;;
79790;SDS011;69278;52.220;5.172;2024-03-23T04:38:26;7.80;;;1.98;;
79790;SDS011;69278;52.220;5.172;2024-03-23T04:40:55;10.93;;;2.40;;
79790;SDS011;69278;52.220;5.172;2024-03-23T04:43:22;9.70;;;1.90;;
79790;SDS011;69278;52.220;5.172;2024-03-23T04:45:48;9.43;;;1.95;;
79790;SDS011;69278;52.220;5.172;2024-03-23T04:48:13;7.63;;;2.00;;
79790;SDS011;69278;52.220;5.172;2024-03-23T04:50:39;10.00;;;2.00;;
79790;SDS011;69278;52.220;5.172;2024-03-23T04:53:05;9.30;;;1.80;;
79790;SDS011;69278;52.220;5.172;2024-03-23T04:55:31;7.47;;;2.03;;
79790;SDS011;69278;52.220;5.172;2024-03-23T04:57:57;5.93;;;1.88;;
79790;SDS011;69278;52.220;5.172;2024-03-23T05:00:22;10.50;;;2.00;;
79790;SDS011;69278;52.220;5.172;2024-03-23T05:02:48;8.52;;;2.10;;
79790;SDS011;69278;52.220;5.172;2024-03-23T05:05:14;10.43;;;2.03;;
79790;SDS011;69278;52.220;5.172;2024-03-23T05:07:40;7.73;;;2.10;;
79790;SDS011;69278;52.220;5.172;2024-03-23T05:10:07;5.38;;;1.80;;
79790;SDS011;69278;52.220;5.172;2024-03-23T05:12:36;6.47;;;1.90;;
79790;SDS011;69278;52.220;5.172;2024-03-23T05:15:03;9.85;;;1.80;;
79790;SDS011;69278;52.220;5.172;2024-03-23T05:17:30;6.33;;;1.80;;
79790;SDS011;69278;52.220;5.172;2024-03-23T05:19:57;4.18;;;1.50;;
79790;SDS011;69278;52.220;5.172;2024-03-23T05:22:22;8.90;;;1.80;;
79790;SDS011;69278;52.220;5.172;2024-03-23T05:24:48;4.72;;;1.55;;
79790;SDS011;69278;52.220;5.172;2024-03-23T05:27:14;9.73;;;2.07;;
79790;SDS011;69278;52.220;5.172;2024-03-23T05:29:40;6.22;;;1.88;;
79790;SDS011;69278;52.220;5.172;2024-03-23T05:32:05;8.70;;;2.00;;
79790;SDS011;69278;52.220;5.172;2024-03-23T05:34:31;8.90;;;2.10;;
79790;SDS011;69278;52.220;5.172;2024-03-23T05:36:57;8.37;;;2.00;;
79790;SDS011;69278;52.220;5.172;2024-03-23T05:39:22;8.10;;;2.05;;
79790;SDS011;69278;52.220;5.172;2024-03-23T05:41:49;11.43;;;2.08;;
79790;SDS011;69278;52.220;5.172;2024-03-23T05:44:14;4.85;;;2.03;;
79790;SDS011;69278;52.220;5.172;2024-03-23T05:46:40;6.63;;;1.77;;
79790;SDS011;69278;52.220;5.172;2024-03-23T05:49:06;7.45;;;2.08;;
79790;SDS011;69278;52.220;5.172;2024-03-23T05:51:32;5.70;;;1.93;;
79790;SDS011;69278;52.220;5.172;2024-03-23T05:53:58;5.65;;;1.88;;
79790;SDS011;69278;52.220;5.172;2024-03-23T05:56:24;8.27;;;1.77;;
79790;SDS011;69278;52.220;5.172;2024-03-23T05:58:51;8.48;;;1.70;;
79790;SDS011;69278;52.220;5.172;2024-03-23T06:01:16;8.82;;;2.00;;
79790;SDS011;69278;52.220;5.172;2024-03-23T06:03:42;5.28;;;1.65;;
79790;SDS011;69278;52.220;5.172;2024-03-23T06:06:09;5.40;;;1.65;;
79790;SDS011;69278;52.220;5.172;2024-03-23T06:08:37;6.60;;;1.60;;
79790;SDS011;69278;52.220;5.172;2024-03-23T06:11:03;6.60;;;1.90;;
79790;SDS011;69278;52.220;5.172;2024-03-23T06:13:31;8.48;;;2.05;;
79790;SDS011;69278;52.220;5.172;2024-03-23T06:15:57;7.67;;;1.80;;
79790;SDS011;69278;52.220;5.172;2024-03-23T06:18:23;6.40;;;1.92;;
79790;SDS011;69278;52.220;5.172;2024-03-23T06:20:49;8.82;;;2.00;;
79790;SDS011;69278;52.220;5.172;2024-03-23T06:23:14;9.53;;;2.03;;
79790;SDS011;69278;52.220;5.172;2024-03-23T06:25:41;8.63;;;2.20;;
79790;SDS011;69278;52.220;5.172;2024-03-23T06:28:06;9.37;;;2.27;;
79790;SDS011;69278;52.220;5.172;2024-03-23T06:30:32;7.87;;;2.23;;
79790;SDS011;69278;52.220;5.172;2024-03-23T06:32:57;8.63;;;2.40;;
79790;SDS011;69278;52.220;5.172;2024-03-23T06:35:23;8.40;;;2.10;;
79790;SDS011;69278;52.220;5.172;2024-03-23T06:37:48;8.77;;;2.20;;
79790;SDS011;69278;52.220;5.172;2024-03-23T06:40:14;8.02;;;2.20;;
79790;SDS011;69278;52.220;5.172;2024-03-23T06:42:39;7.67;;;2.10;;
79790;SDS011;69278;52.220;5.172;2024-03-23T06:45:05;7.82;;;2.50;;
79790;SDS011;69278;52.220;5.172;2024-03-23T06:47:31;8.93;;;2.40;;
79790;SDS011;69278;52.220;5.172;2024-03-23T06:49:58;5.88;;;1.75;;
79790;SDS011;69278;52.220;5.172;2024-03-23T06:52:27;6.63;;;2.20;;
79790;SDS011;69278;52.220;5.172;2024-03-23T06:54:53;6.05;;;2.25;;
79790;SDS011;69278;52.220;5.172;2024-03-23T06:57:18;8.43;;;2.63;;
79790;SDS011;69278;52.220;5.172;2024-03-23T06:59:44;9.50;;;2.07;;
79790;SDS011;69278;52.220;5.172;2024-03-23T07:02:09;6.47;;;2.30;;
79790;SDS011;69278;52.220;5.172;2024-03-23T07:04:35;28.60;;;2.20;;
79790;SDS011;69278;52.220;5.172;2024-03-23T07:07:01;5.32;;;2.17;;
79790;SDS011;69278;52.220;5.172;2024-03-23T07:09:28;6.55;;;2.40;;
79790;SDS011;69278;52.220;5.172;2024-03-23T07:11:54;6.00;;;2.25;;
79790;SDS011;69278;52.220;5.172;2024-03-23T07:14:21;6.93;;;2.20;;
79790;SDS011;69278;52.220;5.172;2024-03-23T07:16:47;7.18;;;2.17;;
79790;SDS011;69278;52.220;5.172;2024-03-23T07:19:14;8.20;;;2.20;;
79790;SDS011;69278;52.220;5.172;2024-03-23T07:21:41;10.25;;;2.63;;
79790;SDS011;69278;52.220;5.172;2024-03-23T07:24:10;6.25;;;2.50;;
79790;SDS011;69278;52.220;5.172;2024-03-23T07:26:36;7.70;;;2.53;;
79790;SDS011;69278;52.220;5.172;2024-03-23T07:29:03;8.63;;;2.60;;
79790;SDS011;69278;52.220;5.172;2024-03-23T07:31:29;7.05;;;2.20;;
79790;SDS011;69278;52.220;5.172;2024-03-23T07:33:55;6.93;;;2.13;;
79790;SDS011;69278;52.220;5.172;2024-03-23T07:36:20;7.38;;;1.92;;
79790;SDS011;69278;52.220;5.172;2024-03-23T07:38:46;7.28;;;2.42;;
79790;SDS011;69278;52.220;5.172;2024-03-23T07:41:12;5.03;;;1.87;;
79790;SDS011;69278;52.220;5.172;2024-03-23T07:43:42;6.05;;;2.35;;
79790;SDS011;69278;52.220;5.172;2024-03-23T07:46:08;8.88;;;2.10;;
79790;SDS011;69278;52.220;5.172;2024-03-23T07:48:34;7.93;;;1.90;;
79790;SDS011;69278;52.220;5.172;2024-03-23T07:51:03;6.80;;;2.15;;
79790;SDS011;69278;52.220;5.172;2024-03-23T07:53:32;9.75;;;2.15;;
79790;SDS011;69278;52.220;5.172;2024-03-23T07:55:59;7.68;;;2.17;;
79790;SDS011;69278;52.220;5.172;2024-03-23T07:58:28;7.32;;;1.98;;
79790;SDS011;69278;52.220;5.172;2024-03-23T08:00:54;6.53;;;2.00;;
79790;SDS011;69278;52.220;5.172;2024-03-23T08:03:20;8.00;;;1.90;;
79790;SDS011;69278;52.220;5.172;2024-03-23T08:05:46;3.97;;;1.70;;
79790;SDS011;69278;52.220;5.172;2024-03-23T08:08:12;7.03;;;1.80;;
79790;SDS011;69278;52.220;5.172;2024-03-23T08:10:46;5.30;;;1.70;;
79790;SDS011;69278;52.220;5.172;2024-03-23T08:13:15;7.20;;;1.60;;
79790;SDS011;69278;52.220;5.172;2024-03-23T08:15:41;8.55;;;2.25;;
79790;SDS011;69278;52.220;5.172;2024-03-23T08:18:07;6.00;;;1.73;;
79790;SDS011;69278;52.220;5.172;2024-03-23T08:20:32;5.35;;;1.70;;
79790;SDS011;69278;52.220;5.172;2024-03-23T08:22:58;6.03;;;1.50;;
79790;SDS011;69278;52.220;5.172;2024-03-23T08:25:24;6.30;;;1.47;;
79790;SDS011;69278;52.220;5.172;2024-03-23T08:27:49;6.43;;;1.53;;
79790;SDS011;69278;52.220;5.172;2024-03-23T08:30:15;5.93;;;1.90;;
79790;SDS011;69278;52.220;5.172;2024-03-23T08:32:41;5.00;;;1.67;;
79790;SDS011;69278;52.220;5.172;2024-03-23T08:35:07;7.82;;;1.98;;
79790;SDS011;69278;52.220;5.172;2024-03-23T08:37:33;10.43;;;1.67;;
79790;SDS011;69278;52.220;5.172;2024-03-23T08:39:58;6.03;;;1.30;;
79790;SDS011;69278;52.220;5.172;2024-03-23T08:42:24;3.43;;;1.10;;
79790;SDS011;69278;52.220;5.172;2024-03-23T08:44:50;5.73;;;1.60;;
79790;SDS011;69278;52.220;5.172;2024-03-23T08:47:15;5.18;;;1.58;;
79790;SDS011;69278;52.220;5.172;2024-03-23T08:49:41;6.13;;;1.40;;
79790;SDS011;69278;52.220;5.172;2024-03-23T08:52:07;5.32;;;1.27;;
79790;SDS011;69278;52.220;5.172;2024-03-23T08:54:33;5.22;;;1.48;;
79790;SDS011;69278;52.220;5.172;2024-03-23T08:56:59;6.82;;;1.60;;
79790;SDS011;69278;52.220;5.172;2024-03-23T08:59:25;12.57;;;1.43;;
79790;SDS011;69278;52.220;5.172;2024-03-23T09:01:51;5.68;;;1.52;;
79790;SDS011;69278;52.220;5.172;2024-03-23T09:04:16;4.13;;;1.47;;
79790;SDS011;69278;52.220;5.172;2024-03-23T09:06:45;7.43;;;1.37;;
79790;SDS011;69278;52.220;5.172;2024-03-23T09:09:10;3.13;;;1.15;;
79790;SDS011;69278;52.220;5.172;2024-03-23T09:11:36;4.32;;;1.42;;
79790;SDS011;69278;52.220;5.172;2024-03-23T09:14:03;4.97;;;1.47;;
79790;SDS011;69278;52.220;5.172;2024-03-23T09:16:28;6.72;;;1.50;;
79790;SDS011;69278;52.220;5.172;2024-03-23T09:18:54;5.73;;;1.40;;
79790;SDS011;69278;52.220;5.172;2024-03-23T09:21:19;7.65;;;1.60;;
79790;SDS011;69278;52.220;5.172;2024-03-23T09:23:45;8.23;;;1.93;;
79790;SDS011;69278;52.220;5.172;2024-03-23T09:26:11;6.25;;;1.83;;
79790;SDS011;69278;52.220;5.172;2024-03-23T09:28:37;5.30;;;1.57;;
79790;SDS011;69278;52.220;5.172;2024-03-23T09:31:03;8.43;;;1.98;;
79790;SDS011;69278;52.220;5.172;2024-03-23T09:33:29;6.80;;;1.67;;
79790;SDS011;69278;52.220;5.172;2024-03-23T09:35:54;6.70;;;1.80;;
79790;SDS011;69278;52.220;5.172;2024-03-23T09:38:21;8.80;;;1.60;;
79790;SDS011;69278;52.220;5.172;2024-03-23T09:40:50;4.30;;;1.65;;
79790;SDS011;69278;52.220;5.172;2024-03-23T09:43:18;5.97;;;1.95;;
79790;SDS011;69278;52.220;5.172;2024-03-23T09:45:44;4.38;;;1.70;;
79790;SDS011;69278;52.220;5.172;2024-03-23T09:48:11;4.10;;;1.50;;
79790;SDS011;69278;52.220;5.172;2024-03-23T09:50:41;5.88;;;1.67;;
79790;SDS011;69278;52.220;5.172;2024-03-23T09:53:08;6.75;;;1.55;;
79790;SDS011;69278;52.220;5.172;2024-03-23T09:55:36;8.93;;;1.60;;
79790;SDS011;69278;52.220;5.172;2024-03-23T09:58:03;4.28;;;1.40;;
79790;SDS011;69278;52.220;5.172;2024-03-23T10:00:30;4.55;;;1.58;;
79790;SDS011;69278;52.220;5.172;2024-03-23T10:02:57;4.57;;;1.50;;
79790;SDS011;69278;52.220;5.172;2024-03-23T10:05:27;4.55;;;1.20;;
79790;SDS011;69278;52.220;5.172;2024-03-23T10:07:53;8.00;;;1.63;;
79790;SDS011;69278;52.220;5.172;2024-03-23T10:10:19;9.07;;;1.55;;
79790;SDS011;69278;52.220;5.172;2024-03-23T10:12:47;7.60;;;1.98;;
79790;SDS011;69278;52.220;5.172;2024-03-23T10:15:22;5.30;;;1.30;;
79790;SDS011;69278;52.220;5.172;2024-03-23T10:17:50;6.70;;;1.55;;
79790;SDS011;69278;52.220;5.172;2024-03-23T10:20:23;6.63;;;1.80;;
79790;SDS011;69278;52.220;5.172;2024-03-23T10:22:51;5.50;;;1.45;;
79790;SDS011;69278;52.220;5.172;2024-03-23T10:25:17;6.60;;;1.40;;
79790;SDS011;69278;52.220;5.172;2024-03-23T10:27:57;6.15;;;1.67;;
79790;SDS011;69278;52.220;5.172;2024-03-23T10:30:24;5.63;;;1.27;;
79790;SDS011;69278;52.220;5.172;2024-03-23T10:33:14;6.20;;;1.60;;
79790;SDS011;69278;52.220;5.172;2024-03-23T10:35:40;7.75;;;1.35;;
79790;SDS011;69278;52.220;5.172;2024-03-23T10:38:06;7.13;;;1.80;;
79790;SDS011;69278;52.220;5.172;2024-03-23T10:40:36;5.53;;;1.42;;
79790;SDS011;69278;52.220;5.172;2024-03-23T10:43:05;8.13;;;1.35;;
79790;SDS011;69278;52.220;5.172;2024-03-23T10:45:31;7.38;;;1.65;;
79790;SDS011;69278;52.220;5.172;2024-03-23T10:47:57;8.73;;;1.60;;
79790;SDS011;69278;52.220;5.172;2024-03-23T10:50:23;4.27;;;1.43;;
79790;SDS011;69278;52.220;5.172;2024-03-23T10:52:49;4.13;;;1.48;;
79790;SDS011;69278;52.220;5.172;2024-03-23T10:55:15;5.07;;;1.38;;
79790;SDS011;69278;52.220;5.172;2024-03-23T10:57:54;6.57;;;1.58;;
79790;SDS011;69278;52.220;5.172;2024-03-23T11:00:21;6.73;;;1.80;;
79790;SDS011;69278;52.220;5.172;2024-03-23T11:02:48;8.32;;;1.35;;
79790;SDS011;69278;52.220;5.172;2024-03-23T11:07:52;7.35;;;1.50;;
79790;SDS011;69278;52.220;5.172;2024-03-23T11:10:24;5.15;;;1.40;;
79790;SDS011;69278;52.220;5.172;2024-03-23T11:12:52;7.23;;;1.50;;
79790;SDS011;69278;52.220;5.172;2024-03-23T11:15:18;6.38;;;1.42;;
79790;SDS011;69278;52.220;5.172;2024-03-23T11:18:01;7.35;;;1.63;;
79790;SDS011;69278;52.220;5.172;2024-03-23T11:20:33;8.23;;;1.50;;
79790;SDS011;69278;52.220;5.172;2024-03-23T11:23:02;6.90;;;1.65;;
79790;SDS011;69278;52.220;5.172;2024-03-23T11:25:28;6.53;;;1.52;;
79790;SDS011;69278;52.220;5.172;2024-03-23T11:27:55;6.63;;;1.53;;
79790;SDS011;69278;52.220;5.172;2024-03-23T11:32:49;7.10;;;1.45;;
79790;SDS011;69278;52.220;5.172;2024-03-23T11:35:25;5.25;;;1.70;;
79790;SDS011;69278;52.220;5.172;2024-03-23T11:40:42;4.83;;;1.50;;
79790;SDS011;69278;52.220;5.172;2024-03-23T11:43:15;2.72;;;1.20;;
79790;SDS011;69278;52.220;5.172;2024-03-23T11:48:12;5.40;;;1.40;;
79790;SDS011;69278;52.220;5.172;2024-03-23T11:50:44;6.90;;;1.60;;
79790;SDS011;69278;52.220;5.172;2024-03-23T11:53:17;3.40;;;1.23;;
79790;SDS011;69278;52.220;5.172;2024-03-23T11:58:21;9.38;;;4.13;;
79790;SDS011;69278;52.220;5.172;2024-03-23T12:00:57;6.50;;;1.77;;
79790;SDS011;69278;52.220;5.172;2024-03-23T12:03:24;6.55;;;2.00;;
79790;SDS011;69278;52.220;5.172;2024-03-23T12:05:51;7.50;;;1.93;;
79790;SDS011;69278;52.220;5.172;2024-03-23T12:08:19;5.20;;;1.70;;
79790;SDS011;69278;52.220;5.172;2024-03-23T12:13:43;9.73;;;2.40;;
79790;SDS011;69278;52.220;5.172;2024-03-23T12:16:11;8.20;;;1.70;;
79790;SDS011;69278;52.220;5.172;2024-03-23T12:18:41;5.23;;;1.50;;
79790;SDS011;69278;52.220;5.172;2024-03-23T12:21:15;5.43;;;1.40;;
79790;SDS011;69278;52.220;5.172;2024-03-23T12:23:42;5.13;;;1.50;;
79790;SDS011;69278;52.220;5.172;2024-03-23T12:26:10;4.20;;;1.30;;
79790;SDS011;69278;52.220;5.172;2024-03-23T12:28:37;3.90;;;1.40;;
79790;SDS011;69278;52.220;5.172;2024-03-23T12:31:02;10.10;;;1.50;;
79790;SDS011;69278;52.220;5.172;2024-03-23T12:33:28;5.00;;;1.73;;
79790;SDS011;69278;52.220;5.172;2024-03-23T12:35:54;7.37;;;1.60;;
79790;SDS011;69278;52.220;5.172;2024-03-23T12:38:19;5.90;;;1.67;;
79790;SDS011;69278;52.220;5.172;2024-03-23T12:40:49;6.00;;;1.53;;
79790;SDS011;69278;52.220;5.172;2024-03-23T12:43:15;11.68;;;2.15;;
79790;SDS011;69278;52.220;5.172;2024-03-23T12:45:41;5.57;;;1.35;;
79790;SDS011;69278;52.220;5.172;2024-03-23T12:48:11;5.33;;;1.70;;
79790;SDS011;69278;52.220;5.172;2024-03-23T12:50:36;4.45;;;1.42;;
79790;SDS011;69278;52.220;5.172;2024-03-23T12:53:02;6.67;;;2.33;;
79790;SDS011;69278;52.220;5.172;2024-03-23T12:55:27;7.10;;;1.73;;
79790;SDS011;69278;52.220;5.172;2024-03-23T12:57:54;4.38;;;1.70;;
79790;SDS011;69278;52.220;5.172;2024-03-23T13:00:19;6.63;;;1.27;;
79790;SDS011;69278;52.220;5.172;2024-03-23T13:02:45;4.60;;;1.40;;
79790;SDS011;69278;52.220;5.172;2024-03-23T13:05:10;3.50;;;1.40;;
79790;SDS011;69278;52.220;5.172;2024-03-23T13:07:36;8.90;;;1.80;;
79790;SDS011;69278;52.220;5.172;2024-03-23T13:10:04;5.65;;;1.45;;
79790;SDS011;69278;52.220;5.172;2024-03-23T13:12:30;3.60;;;1.20;;
79790;SDS011;69278;52.220;5.172;2024-03-23T13:14:56;3.88;;;1.38;;
79790;SDS011;69278;52.220;5.172;2024-03-23T13:17:22;4.93;;;1.53;;
79790;SDS011;69278;52.220;5.172;2024-03-23T13:19:47;7.38;;;1.63;;
79790;SDS011;69278;52.220;5.172;2024-03-23T13:22:13;4.17;;;1.17;;
79790;SDS011;69278;52.220;5.172;2024-03-23T13:24:38;6.47;;;1.63;;
79790;SDS011;69278;52.220;5.172;2024-03-23T13:27:04;6.22;;;1.73;;
79790;SDS011;69278;52.220;5.172;2024-03-23T13:29:33;5.95;;;1.77;;
79790;SDS011;69278;52.220;5.172;2024-03-23T13:32:03;7.63;;;2.40;;
79790;SDS011;69278;52.220;5.172;2024-03-23T13:34:29;6.63;;;1.75;;
79790;SDS011;69278;52.220;5.172;2024-03-23T13:36:55;6.90;;;2.25;;
79790;SDS011;69278;52.220;5.172;2024-03-23T13:39:21;7.03;;;2.47;;
79790;SDS011;69278;52.220;5.172;2024-03-23T13:41:47;4.03;;;1.50;;
79790;SDS011;69278;52.220;5.172;2024-03-23T13:44:13;6.60;;;1.50;;
79790;SDS011;69278;52.220;5.172;2024-03-23T13:46:40;3.03;;;1.10;;
79790;SDS011;69278;52.220;5.172;2024-03-23T13:49:26;4.90;;;1.50;;
79790;SDS011;69278;52.220;5.172;2024-03-23T13:51:53;7.45;;;1.77;;
79790;SDS011;69278;52.220;5.172;2024-03-23T13:54:20;5.05;;;1.60;;
79790;SDS011;69278;52.220;5.172;2024-03-23T13:56:47;3.33;;;1.30;;
79790;SDS011;69278;52.220;5.172;2024-03-23T13:59:13;3.22;;;1.40;;
79790;SDS011;69278;52.220;5.172;2024-03-23T14:01:39;4.32;;;1.60;;
79790;SDS011;69278;52.220;5.172;2024-03-23T14:04:04;5.28;;;1.55;;
79790;SDS011;69278;52.220;5.172;2024-03-23T14:06:30;5.93;;;1.40;;
79790;SDS011;69278;52.220;5.172;2024-03-23T14:08:55;3.50;;;1.50;;
79790;SDS011;69278;52.220;5.172;2024-03-23T14:11:21;9.18;;;3.10;;
79790;SDS011;69278;52.220;5.172;2024-03-23T14:13:47;4.88;;;1.65;;
79790;SDS011;69278;52.220;5.172;2024-03-23T14:16:12;5.13;;;1.10;;
79790;SDS011;69278;52.220;5.172;2024-03-23T14:18:38;3.30;;;1.20;;
79790;SDS011;69278;52.220;5.172;2024-03-23T14:21:03;6.07;;;1.80;;
79790;SDS011;69278;52.220;5.172;2024-03-23T14:23:30;3.38;;;1.15;;
79790;SDS011;69278;52.220;5.172;2024-03-23T14:26:06;5.65;;;1.48;;
79790;SDS011;69278;52.220;5.172;2024-03-23T14:28:33;5.83;;;2.10;;
79790;SDS011;69278;52.220;5.172;2024-03-23T14:30:59;2.38;;;1.30;;
79790;SDS011;69278;52.220;5.172;2024-03-23T14:33:24;7.87;;;2.00;;
79790;SDS011;69278;52.220;5.172;2024-03-23T14:35:53;7.25;;;2.20;;
79790;SDS011;69278;52.220;5.172;2024-03-23T14:38:22;6.87;;;1.73;;
79790;SDS011;69278;52.220;5.172;2024-03-23T14:40:48;4.93;;;2.08;;
79790;SDS011;69278;52.220;5.172;2024-03-23T14:43:14;9.15;;;2.50;;
79790;SDS011;69278;52.220;5.172;2024-03-23T14:48:44;4.47;;;1.30;;
79790;SDS011;69278;52.220;5.172;2024-03-23T14:51:11;5.30;;;1.75;;
79790;SDS011;69278;52.220;5.172;2024-03-23T14:53:38;4.40;;;1.27;;
79790;SDS011;69278;52.220;5.172;2024-03-23T14:56:05;4.07;;;1.33;;
79790;SDS011;69278;52.220;5.172;2024-03-23T14:58:32;3.42;;;1.20;;
79790;SDS011;69278;52.220;5.172;2024-03-23T15:01:00;3.88;;;1.48;;
79790;SDS011;69278;52.220;5.172;2024-03-23T15:03:27;8.07;;;1.63;;
79790;SDS011;69278;52.220;5.172;2024-03-23T15:05:56;4.67;;;1.47;;
79790;SDS011;69278;52.220;5.172;2024-03-23T15:08:22;6.68;;;1.10;;
79790;SDS011;69278;52.220;5.172;2024-03-23T15:10:48;2.78;;;1.10;;
79790;SDS011;69278;52.220;5.172;2024-03-23T15:13:14;3.67;;;1.25;;
79790;SDS011;69278;52.220;5.172;2024-03-23T15:15:40;4.43;;;1.10;;
79790;SDS011;69278;52.220;5.172;2024-03-23T15:18:10;4.00;;;1.55;;
79790;SDS011;69278;52.220;5.172;2024-03-23T15:20:38;7.35;;;1.63;;
79790;SDS011;69278;52.220;5.172;2024-03-23T15:23:04;4.55;;;1.40;;
79790;SDS011;69278;52.220;5.172;2024-03-23T15:25:30;6.70;;;1.57;;
79790;SDS011;69278;52.220;5.172;2024-03-23T15:27:56;4.38;;;1.42;;
79790;SDS011;69278;52.220;5.172;2024-03-23T15:30:23;7.53;;;1.58;;
79790;SDS011;69278;52.220;5.172;2024-03-23T15:32:48;5.70;;;1.50;;
79790;SDS011;69278;52.220;5.172;2024-03-23T15:35:14;3.20;;;1.20;;
79790;SDS011;69278;52.220;5.172;2024-03-23T15:37:39;7.60;;;1.60;;
79790;SDS011;69278;52.220;5.172;2024-03-23T15:40:06;7.05;;;1.60;;
79790;SDS011;69278;52.220;5.172;2024-03-23T15:42:32;3.45;;;1.40;;
79790;SDS011;69278;52.220;5.172;2024-03-23T15:44:57;5.28;;;1.33;;
79790;SDS011;69278;52.220;5.172;2024-03-23T15:47:23;6.90;;;1.80;;
79790;SDS011;69278;52.220;5.172;2024-03-23T15:49:49;5.72;;;1.45;;
79790;SDS011;69278;52.220;5.172;2024-03-23T15:52:15;6.25;;;1.73;;
79790;SDS011;69278;52.220;5.172;2024-03-23T15:54:42;8.87;;;1.60;;